Regal Star — ESCM — position and weather

sailwx.info

Track history (hours):
 
Tides and Currents Weather Stations Pressure Air Temp Water Temp Dewpoint Dewpoint Depression Visibility Wind Speed Wind Dir Waves Ship Positions

Regal Star

Last reported at 2016-Jul-28 23:25 UTC. Time now 2016-Jul-29 00:12 UTC.
Position N 59°29' E 021°16'.

Length 157 m; draft 6.1 m.

Type: Ship (hazmat cat B). MMSI: 276554000.

Date/timePositionNaut miles runAvg speedWind from/ knotsBaromVisibWave heightAir tempDewpointWater temp
2016-Jul-28 23:25N 59°29' E 021°16'86 4.8
2016-Jul-28 05:23N 59°20' E 024°05'1313.6
2016-Jul-28 04:26N 59°23' E 023°40'1314.9
2016-Jul-28 03:33N 59°23' E 023°14'9 9.3
2016-Jul-28 02:33N 59°23' E 022°56'1612.1
2016-Jul-28 01:12N 59°24' E 022°24'1215.7
2016-Jul-28 00:25N 59°27' E 022°01'1415.5
2016-Jul-27 23:31N 59°31' E 021°34'1615.6
2016-Jul-27 22:29N 59°36' E 021°04'8 0.3
2016-Jul-26 23:29N 59°29' E 021°12'1514.7
2016-Jul-26 22:29N 59°26' E 021°40'1415.2
2016-Jul-26 21:34N 59°23' E 022°07'1515.2
2016-Jul-26 20:33N 59°20' E 022°36'1715.6
2016-Jul-26 19:28N 59°21' E 023°10'1615.9
2016-Jul-26 18:30N 59°22' E 023°40'13 4.2
2016-Jul-26 15:21N 59°20' E 024°05'0 0.0
2016-Jul-26 14:33N 59°20' E 024°05'12 1.2
2016-Jul-26 04:23N 59°23' E 023°42'1315.4
2016-Jul-26 03:32N 59°23' E 023°16'1111.0
2016-Jul-26 02:31N 59°23' E 022°54'2613.3
2016-Jul-26 00:33N 59°27' E 022°04'1615.6
2016-Jul-25 23:33N 59°31' E 021°34'1615.6
2016-Jul-25 22:33N 59°36' E 021°05'1615.7
2016-Jul-25 21:33N 59°40' E 020°35'1515.2
2016-Jul-25 20:32N 59°45' E 020°06'1615.6
2016-Jul-25 19:30N 59°45' E 019°34'1515.2
2016-Jul-25 18:32N 59°43' E 019°05'1 0.3
2016-Jul-25 16:25N 59°43' E 019°04'0 0.0
2016-Jul-25 12:13N 59°43' E 019°04'0 0.0
2016-Jul-25 11:31N 59°43' E 019°04'24 2.6
2016-Jul-25 02:33N 59°43' E 019°51'4413.6
2016-Jul-24 23:22N 59°29' E 021°13'1615.5
2016-Jul-24 22:19N 59°26' E 021°44'1515.4
2016-Jul-24 21:21N 59°22' E 022°12'1215.3
2016-Jul-24 20:33N 59°20' E 022°36'34 5.6
2016-Jul-24 14:29N 59°23' E 023°42'1415.4
2016-Jul-24 13:33N 59°23' E 023°14'1615.8
2016-Jul-24 12:34N 59°22' E 022°43'2015.1
2016-Jul-24 11:13N 59°27' E 022°04'1015.7
2016-Jul-24 10:33N 59°30' E 021°45'1615.6
2016-Jul-24 09:34N 59°34' E 021°15'6511.9
2016-Jul-24 04:03N 59°43' E 019°07'6514.1
2016-Jul-23 23:28N 59°29' E 021°12'1415.5
2016-Jul-23 22:33N 59°26' E 021°40'1515.4
2016-Jul-23 21:33N 59°22' E 022°09'1815.2
2016-Jul-23 20:21N 59°21' E 022°45'2015.3
2016-Jul-23 19:04N 59°22' E 023°23'10 0.6
2016-Jul-23 03:10N 59°23' E 023°03'3115.4
2016-Jul-23 01:08N 59°27' E 022°02'915.7
2016-Jul-23 00:33N 59°30' E 021°45'1615.7
2016-Jul-22 23:33N 59°34' E 021°15'5 0.2
2016-Jul-21 23:25N 59°29' E 021°13'1415.7
2016-Jul-21 22:32N 59°26' E 021°39'50 2.6
2016-Jul-21 03:29N 59°23' E 023°17'1415.5
2016-Jul-21 02:33N 59°23' E 022°49'1515.3
2016-Jul-21 01:33N 59°25' E 022°19'1615.7
2016-Jul-21 00:33N 59°29' E 021°49'1615.5
2016-Jul-20 23:33N 59°34' E 021°20'1615.6
2016-Jul-20 22:31N 59°38' E 020°49'16 0.7
2016-Jul-19 23:33N 59°29' E 021°16'2015.3
2016-Jul-19 22:15N 59°24' E 021°54'58 3.3
2016-Jul-19 04:33N 59°23' E 023°47'6015.0
2016-Jul-19 00:33N 59°29' E 021°50'9 9.3
2016-Jul-18 23:33N 59°32' E 021°33'  
Track history (hours):
 
Tides and Currents Weather Stations Pressure Air Temp Water Temp Dewpoint Dewpoint Depression Visibility Wind Speed Wind Dir Waves Ship Positions

Regal Star

Last reported at 2016-Jul-28 23:25 UTC. Time now 2016-Jul-29 00:12 UTC.
Position N 59°29' E 021°16'.

Length 157 m; draft 6.1 m.

Type: Ship (hazmat cat B). MMSI: 276554000.

Date/timePositionNaut miles runAvg speedWind from/ knotsBaromVisibWave heightAir tempDewpointWater temp
2016-Jul-28 23:25N 59°29' E 021°16'86 4.8
2016-Jul-28 05:23N 59°20' E 024°05'1313.6
2016-Jul-28 04:26N 59°23' E 023°40'1314.9
2016-Jul-28 03:33N 59°23' E 023°14'9 9.3
2016-Jul-28 02:33N 59°23' E 022°56'1612.1
2016-Jul-28 01:12N 59°24' E 022°24'1215.7
2016-Jul-28 00:25N 59°27' E 022°01'1415.5
2016-Jul-27 23:31N 59°31' E 021°34'1615.6
2016-Jul-27 22:29N 59°36' E 021°04'8 0.3
2016-Jul-26 23:29N 59°29' E 021°12'1514.7
2016-Jul-26 22:29N 59°26' E 021°40'1415.2
2016-Jul-26 21:34N 59°23' E 022°07'1515.2
2016-Jul-26 20:33N 59°20' E 022°36'1715.6
2016-Jul-26 19:28N 59°21' E 023°10'1615.9
2016-Jul-26 18:30N 59°22' E 023°40'13 4.2
2016-Jul-26 15:21N 59°20' E 024°05'0 0.0
2016-Jul-26 14:33N 59°20' E 024°05'12 1.2
2016-Jul-26 04:23N 59°23' E 023°42'1315.4
2016-Jul-26 03:32N 59°23' E 023°16'1111.0
2016-Jul-26 02:31N 59°23' E 022°54'2613.3
2016-Jul-26 00:33N 59°27' E 022°04'1615.6
2016-Jul-25 23:33N 59°31' E 021°34'1615.6
2016-Jul-25 22:33N 59°36' E 021°05'1615.7
2016-Jul-25 21:33N 59°40' E 020°35'1515.2
2016-Jul-25 20:32N 59°45' E 020°06'1615.6
2016-Jul-25 19:30N 59°45' E 019°34'1515.2
2016-Jul-25 18:32N 59°43' E 019°05'1 0.3
2016-Jul-25 16:25N 59°43' E 019°04'0 0.0
2016-Jul-25 12:13N 59°43' E 019°04'0 0.0
2016-Jul-25 11:31N 59°43' E 019°04'24 2.6
2016-Jul-25 02:33N 59°43' E 019°51'4413.6
2016-Jul-24 23:22N 59°29' E 021°13'1615.5
2016-Jul-24 22:19N 59°26' E 021°44'1515.4
2016-Jul-24 21:21N 59°22' E 022°12'1215.3
2016-Jul-24 20:33N 59°20' E 022°36'34 5.6
2016-Jul-24 14:29N 59°23' E 023°42'1415.4
2016-Jul-24 13:33N 59°23' E 023°14'1615.8
2016-Jul-24 12:34N 59°22' E 022°43'2015.1
2016-Jul-24 11:13N 59°27' E 022°04'1015.7
2016-Jul-24 10:33N 59°30' E 021°45'1615.6
2016-Jul-24 09:34N 59°34' E 021°15'6511.9
2016-Jul-24 04:03N 59°43' E 019°07'6514.1
2016-Jul-23 23:28N 59°29' E 021°12'1415.5
2016-Jul-23 22:33N 59°26' E 021°40'1515.4
2016-Jul-23 21:33N 59°22' E 022°09'1815.2
2016-Jul-23 20:21N 59°21' E 022°45'2015.3
2016-Jul-23 19:04N 59°22' E 023°23'10 0.6
2016-Jul-23 03:10N 59°23' E 023°03'3115.4
2016-Jul-23 01:08N 59°27' E 022°02'915.7
2016-Jul-23 00:33N 59°30' E 021°45'1615.7
2016-Jul-22 23:33N 59°34' E 021°15'5 0.2
2016-Jul-21 23:25N 59°29' E 021°13'1415.7
2016-Jul-21 22:32N 59°26' E 021°39'50 2.6
2016-Jul-21 03:29N 59°23' E 023°17'1415.5
2016-Jul-21 02:33N 59°23' E 022°49'1515.3
2016-Jul-21 01:33N 59°25' E 022°19'1615.7
2016-Jul-21 00:33N 59°29' E 021°49'1615.5
2016-Jul-20 23:33N 59°34' E 021°20'1615.6
2016-Jul-20 22:31N 59°38' E 020°49'16 0.7
2016-Jul-19 23:33N 59°29' E 021°16'2015.3
2016-Jul-19 22:15N 59°24' E 021°54'58 3.3
2016-Jul-19 04:33N 59°23' E 023°47'6015.0
2016-Jul-19 00:33N 59°29' E 021°50'9 9.3
2016-Jul-18 23:33N 59°32' E 021°33'  

Dump ship's entire track history